createdAt,value
2023-01-26T00:02:04.553Z,62.43
2023-01-26T00:04:31.483Z,57.20
2023-01-26T00:06:58.340Z,58.13
2023-01-26T00:09:25.225Z,52.47
2023-01-26T00:11:52.190Z,51.13
2023-01-26T00:14:19.037Z,57.73
2023-01-26T00:16:46.007Z,58.63
2023-01-26T00:19:12.875Z,77.07
2023-01-26T00:21:42.041Z,54.27
2023-01-26T00:24:09.053Z,60.97
2023-01-26T00:26:36.076Z,63.20
2023-01-26T00:29:05.427Z,57.77
2023-01-26T00:31:34.804Z,56.73
2023-01-26T00:34:03.999Z,62.17
2023-01-26T00:36:30.955Z,63.23
2023-01-26T00:38:57.857Z,65.20
2023-01-26T00:41:45.628Z,58.83
2023-01-26T00:44:14.793Z,62.00
2023-01-26T00:46:41.802Z,58.37
2023-01-26T00:49:11.369Z,63.47
2023-01-26T00:51:38.390Z,65.23
2023-01-26T00:54:08.701Z,62.53
2023-01-26T00:56:36.087Z,62.50
2023-01-26T00:59:03.129Z,66.03
2023-01-26T01:01:30.091Z,56.33
2023-01-26T01:04:01.597Z,66.97
2023-01-26T01:06:28.512Z,68.00
2023-01-26T01:08:55.419Z,68.40
2023-01-26T01:11:24.509Z,68.50
2023-01-26T01:13:53.654Z,62.37
2023-01-26T01:16:25.516Z,66.00
2023-01-26T01:18:58.910Z,73.13
2023-01-26T01:21:25.995Z,69.33
2023-01-26T01:23:57.983Z,74.57
2023-01-26T01:26:24.947Z,61.20
2023-01-26T01:28:58.297Z,61.33
2023-01-26T01:31:26.305Z,68.87
2023-01-26T01:33:54.060Z,59.13
2023-01-26T01:36:21.505Z,60.33
2023-01-26T01:38:50.887Z,61.17
2023-01-26T01:41:21.409Z,66.77
2023-01-26T01:43:51.227Z,60.40
2023-01-26T01:46:32.812Z,64.97
2023-01-26T01:49:17.769Z,65.57
2023-01-26T01:52:04.409Z,66.87
2023-01-26T01:54:54.608Z,60.77
2023-01-26T01:57:30.049Z,62.83
2023-01-26T02:00:10.018Z,72.60
2023-01-26T02:02:38.509Z,68.60
2023-01-26T02:05:21.557Z,60.40
2023-01-26T02:07:52.897Z,65.20
2023-01-26T02:10:20.812Z,68.37
2023-01-26T02:13:01.963Z,56.37
2023-01-26T02:15:28.908Z,59.50
2023-01-26T02:17:56.144Z,64.33
2023-01-26T02:20:38.517Z,67.50
2023-01-26T02:23:31.778Z,61.00
2023-01-26T02:26:12.640Z,69.83
2023-01-26T02:28:40.683Z,71.30
2023-01-26T02:31:08.661Z,66.77
2023-01-26T02:33:38.178Z,68.50
2023-01-26T02:36:12.117Z,68.87
2023-01-26T02:38:47.030Z,72.20
2023-01-26T02:41:35.793Z,82.20
2023-01-26T02:44:06.934Z,73.30
2023-01-26T02:46:34.085Z,69.30
2023-01-26T02:49:19.928Z,68.70
2023-01-26T02:51:48.916Z,65.27
2023-01-26T02:54:41.800Z,80.60
2023-01-26T02:57:08.766Z,67.27
2023-01-26T02:59:40.222Z,73.90
2023-01-26T03:02:07.493Z,78.43
2023-01-26T03:04:36.913Z,70.87
2023-01-26T03:07:03.914Z,74.13
2023-01-26T03:09:30.820Z,71.63
2023-01-26T03:11:57.740Z,75.47
2023-01-26T03:14:24.687Z,71.53
2023-01-26T03:16:51.593Z,78.07
2023-01-26T03:19:36.787Z,71.37
2023-01-26T03:22:22.155Z,68.97
2023-01-26T03:25:09.639Z,65.63
2023-01-26T03:27:48.552Z,77.67
2023-01-26T03:30:19.012Z,62.10
2023-01-26T03:32:45.966Z,73.00
2023-01-26T03:35:15.972Z,73.37
2023-01-26T03:37:43.892Z,76.00
2023-01-26T03:40:33.643Z,67.90
2023-01-26T03:43:28.421Z,67.87
2023-01-26T03:46:13.717Z,68.73
2023-01-26T03:49:02.278Z,70.80
2023-01-26T03:51:49.948Z,68.07
2023-01-26T03:54:37.895Z,65.57
2023-01-26T03:57:09.905Z,61.43
2023-01-26T03:59:39.410Z,67.20
2023-01-26T04:02:30.752Z,70.10
2023-01-26T04:05:18.821Z,66.60
2023-01-26T04:08:06.764Z,63.33
2023-01-26T04:10:33.625Z,70.97
2023-01-26T04:13:19.069Z,78.57
2023-01-26T04:16:07.568Z,70.47
2023-01-26T04:18:53.276Z,82.33
2023-01-26T04:21:29.316Z,70.37
2023-01-26T04:23:59.419Z,65.60
2023-01-26T04:26:34.799Z,72.43
2023-01-26T04:29:08.685Z,71.53
2023-01-26T04:31:39.048Z,63.00
2023-01-26T04:34:11.918Z,66.97
2023-01-26T04:36:41.872Z,75.43
2023-01-26T04:39:09.715Z,71.20
2023-01-26T04:41:36.604Z,65.50
2023-01-26T04:44:03.836Z,62.57
2023-01-26T04:46:33.853Z,66.77
2023-01-26T04:49:00.731Z,64.27
2023-01-26T04:51:30.703Z,64.80
2023-01-26T04:54:02.581Z,67.07
2023-01-26T04:56:35.308Z,64.23
2023-01-26T04:59:09.710Z,76.47
2023-01-26T05:01:36.956Z,61.43
2023-01-26T05:04:05.671Z,49.93
2023-01-26T05:06:32.730Z,52.77
2023-01-26T05:09:02.093Z,58.97
2023-01-26T05:11:28.961Z,67.90
2023-01-26T05:13:55.826Z,61.50
2023-01-26T05:16:22.770Z,64.37
2023-01-26T05:18:49.743Z,62.20
2023-01-26T05:21:19.300Z,60.90
2023-01-26T05:23:49.277Z,55.57
2023-01-26T05:26:16.285Z,65.43
2023-01-26T05:28:45.556Z,58.83
2023-01-26T05:31:14.618Z,56.83
2023-01-26T05:33:44.110Z,56.43
2023-01-26T05:36:18.081Z,56.67
2023-01-26T05:38:50.397Z,57.50
2023-01-26T05:41:19.384Z,57.80
2023-01-26T05:43:48.427Z,64.97
2023-01-26T05:46:17.491Z,58.27
2023-01-26T05:48:46.448Z,62.67
2023-01-26T05:51:15.372Z,65.23
2023-01-26T05:53:42.279Z,58.30
2023-01-26T05:56:13.664Z,60.60
2023-01-26T05:58:42.744Z,59.83
2023-01-26T06:01:12.159Z,61.53
2023-01-26T06:03:41.495Z,58.83
2023-01-26T06:06:08.363Z,67.10
2023-01-26T06:08:35.298Z,57.70
2023-01-26T06:11:02.171Z,57.23
2023-01-26T06:13:32.391Z,63.50
2023-01-26T06:16:02.515Z,72.43
2023-01-26T06:18:29.456Z,67.97
2023-01-26T06:21:00.868Z,62.27
2023-01-26T06:23:30.542Z,63.63
2023-01-26T06:26:01.566Z,69.77
2023-01-26T06:28:34.067Z,67.67
2023-01-26T06:31:02.993Z,69.23
2023-01-26T06:33:35.110Z,65.00
2023-01-26T06:36:13.396Z,62.30
2023-01-26T06:38:46.860Z,67.47
2023-01-26T06:41:13.953Z,67.73
2023-01-26T06:43:45.257Z,65.07
2023-01-26T06:46:14.929Z,59.57
2023-01-26T06:48:44.344Z,70.30
2023-01-26T06:51:20.147Z,75.63
2023-01-26T06:54:00.110Z,72.53
2023-01-26T06:56:28.592Z,62.03
2023-01-26T06:58:58.549Z,69.70
2023-01-26T07:01:26.992Z,56.47
2023-01-26T07:03:55.472Z,62.50
2023-01-26T07:06:22.399Z,67.77
2023-01-26T07:08:52.375Z,69.80
2023-01-26T07:11:20.159Z,65.03
2023-01-26T07:13:52.224Z,59.00
2023-01-26T07:16:21.757Z,68.63
2023-01-26T07:18:48.713Z,65.67
2023-01-26T07:21:18.841Z,58.00
2023-01-26T07:23:51.026Z,57.87
2023-01-26T07:26:18.683Z,62.43
2023-01-26T07:28:47.783Z,54.43
2023-01-26T07:31:15.154Z,64.10
2023-01-26T07:33:42.288Z,59.67
2023-01-26T07:36:10.984Z,64.47
2023-01-26T07:38:40.622Z,66.67
2023-01-26T07:41:11.604Z,62.70
2023-01-26T07:43:44.648Z,58.47
2023-01-26T07:46:12.203Z,58.33
2023-01-26T07:48:40.794Z,58.50
2023-01-26T07:51:09.345Z,60.93
2023-01-26T07:53:43.534Z,62.00
2023-01-26T07:56:16.576Z,54.27
2023-01-26T07:58:45.662Z,68.80
2023-01-26T08:01:15.225Z,60.63
2023-01-26T08:03:49.450Z,71.60
2023-01-26T08:06:17.378Z,63.00
2023-01-26T08:08:51.297Z,62.63
2023-01-26T08:11:19.764Z,57.73
2023-01-26T08:13:51.383Z,64.07
2023-01-26T08:16:20.854Z,63.57
2023-01-26T08:18:50.454Z,52.27
2023-01-26T08:21:19.234Z,56.30
2023-01-26T08:23:50.753Z,58.63
2023-01-26T08:26:21.122Z,50.40
2023-01-26T08:28:50.564Z,61.03
2023-01-26T08:31:20.986Z,53.03
2023-01-26T08:33:52.558Z,58.87
2023-01-26T08:36:22.297Z,59.00
2023-01-26T08:38:52.402Z,59.90
2023-01-26T08:41:19.258Z,62.07
2023-01-26T08:43:48.982Z,56.73
2023-01-26T08:46:16.186Z,46.90
2023-01-26T08:48:47.801Z,53.70
2023-01-26T08:51:14.791Z,48.73
2023-01-26T08:53:41.711Z,51.27
2023-01-26T08:56:12.204Z,57.30
2023-01-26T08:58:40.563Z,51.13
2023-01-26T09:01:12.126Z,47.43
2023-01-26T09:03:39.325Z,49.40
2023-01-26T09:06:09.299Z,44.83
2023-01-26T09:08:38.823Z,56.60
2023-01-26T09:11:07.330Z,49.10
2023-01-26T09:13:34.376Z,44.33
2023-01-26T09:16:05.945Z,42.20
2023-01-26T09:18:35.865Z,45.27
2023-01-26T09:21:09.183Z,51.30
2023-01-26T09:23:38.821Z,45.50
2023-01-26T09:26:05.836Z,45.63
2023-01-26T09:28:32.840Z,45.20
2023-01-26T09:31:11.427Z,46.57
2023-01-26T09:33:38.477Z,43.10
2023-01-26T09:36:09.187Z,46.00
2023-01-26T09:38:36.283Z,46.33
2023-01-26T09:41:47.308Z,45.77
2023-01-26T09:44:24.163Z,47.77
2023-01-26T09:46:58.063Z,44.80
2023-01-26T09:49:50.197Z,48.97
2023-01-26T09:52:39.659Z,43.57
2023-01-26T09:55:16.940Z,47.03
2023-01-26T09:58:04.488Z,49.87
2023-01-26T10:00:49.004Z,43.67
2023-01-26T10:03:24.636Z,44.93
2023-01-26T10:06:07.806Z,44.10
2023-01-26T10:08:37.294Z,39.77
2023-01-26T10:11:15.891Z,49.60
2023-01-26T10:13:56.902Z,43.10
2023-01-26T10:16:25.255Z,51.93
2023-01-26T10:19:02.045Z,42.73
2023-01-26T10:21:41.259Z,45.70
2023-01-26T10:24:11.446Z,45.83
2023-01-26T10:26:38.435Z,46.33
2023-01-26T10:29:05.368Z,45.77
2023-01-26T10:31:37.279Z,42.97
2023-01-26T10:34:23.873Z,44.03
2023-01-26T10:36:53.802Z,43.47
2023-01-26T10:39:20.732Z,48.80
2023-01-26T10:42:05.280Z,40.60
2023-01-26T10:44:37.730Z,41.57
2023-01-26T10:47:13.421Z,40.23
2023-01-26T10:49:42.542Z,48.67
2023-01-26T10:52:25.465Z,41.53
2023-01-26T10:55:20.105Z,46.80
2023-01-26T10:57:47.045Z,41.63
2023-01-26T11:00:29.460Z,44.77
2023-01-26T11:03:19.942Z,40.00
2023-01-26T11:06:05.817Z,46.07
2023-01-26T11:08:36.620Z,39.37
2023-01-26T11:11:10.342Z,44.30
2023-01-26T11:13:37.931Z,40.40
2023-01-26T11:16:34.108Z,45.13
2023-01-26T11:19:35.198Z,41.13
2023-01-26T11:22:47.512Z,39.10
2023-01-26T11:25:59.452Z,33.00
2023-01-26T11:28:53.007Z,38.90
2023-01-26T11:32:12.063Z,45.57
2023-01-26T11:34:50.784Z,43.50
2023-01-26T11:37:42.147Z,36.20
2023-01-26T11:40:44.758Z,33.57
2023-01-26T11:43:30.881Z,38.00
2023-01-26T11:46:16.508Z,37.23
2023-01-26T11:49:33.277Z,44.53
2023-01-26T11:52:18.943Z,38.57
2023-01-26T11:55:25.077Z,44.47
2023-01-26T11:58:05.340Z,35.27
2023-01-26T12:00:43.192Z,39.10
2023-01-26T12:03:46.987Z,29.87
2023-01-26T12:06:45.589Z,28.93
2023-01-26T12:09:38.202Z,32.10
2023-01-26T12:12:42.886Z,28.03
2023-01-26T12:15:37.373Z,29.80
2023-01-26T12:18:42.153Z,33.77
2023-01-26T12:21:20.418Z,30.50
2023-01-26T12:24:07.283Z,28.77
2023-01-26T12:26:50.710Z,28.10
2023-01-26T12:29:41.678Z,27.23
2023-01-26T12:32:17.590Z,31.50
2023-01-26T12:34:47.288Z,25.03
2023-01-26T12:38:17.859Z,26.07
2023-01-26T12:41:27.023Z,26.10
2023-01-26T12:44:36.016Z,28.23
2023-01-26T12:47:48.736Z,20.10
2023-01-26T12:50:57.357Z,24.20
2023-01-26T12:53:34.454Z,20.90
2023-01-26T12:56:33.758Z,21.63
2023-01-26T12:59:13.584Z,21.87
2023-01-26T13:01:59.434Z,31.77
2023-01-26T13:04:26.643Z,19.27
2023-01-26T13:07:24.822Z,18.40
2023-01-26T13:10:20.326Z,18.70
2023-01-26T13:13:25.557Z,21.93
2023-01-26T13:16:17.656Z,21.50
2023-01-26T13:18:58.757Z,25.27
2023-01-26T13:21:43.908Z,18.30
2023-01-26T13:24:17.296Z,28.77
2023-01-26T13:27:00.776Z,30.80
2023-01-26T13:29:36.263Z,26.10
2023-01-26T13:32:23.445Z,31.53
2023-01-26T13:34:59.119Z,32.47
2023-01-26T13:37:42.493Z,30.37
2023-01-26T13:40:33.661Z,39.77
2023-01-26T13:43:30.923Z,39.53
2023-01-26T13:46:06.731Z,34.37
2023-01-26T13:48:53.858Z,35.17
2023-01-26T13:51:30.562Z,40.63
2023-01-26T13:53:59.515Z,43.57
2023-01-26T13:56:34.974Z,39.00
2023-01-26T13:59:11.744Z,36.60
2023-01-26T14:01:48.540Z,53.23
2023-01-26T14:04:24.817Z,42.60
2023-01-26T14:07:15.790Z,48.37
2023-01-26T14:09:52.664Z,58.73
2023-01-26T14:12:28.656Z,54.73
2023-01-26T14:15:03.401Z,48.53
2023-01-26T14:17:46.332Z,55.33
2023-01-26T14:20:33.952Z,43.60
2023-01-26T14:23:15.472Z,53.43
2023-01-26T14:25:49.105Z,50.63
2023-01-26T14:28:21.309Z,49.80
2023-01-26T14:30:55.930Z,57.33
2023-01-26T14:33:25.061Z,43.57
2023-01-26T14:35:59.601Z,53.67
2023-01-26T14:38:29.785Z,57.03
2023-01-26T14:41:00.222Z,59.03
2023-01-26T14:43:28.073Z,58.67
2023-01-26T14:46:41.218Z,60.93
2023-01-26T14:49:30.264Z,60.13
2023-01-26T14:52:02.935Z,56.27
2023-01-26T14:54:39.454Z,60.53
2023-01-26T14:57:09.539Z,60.87
2023-01-26T14:59:39.885Z,74.07
2023-01-26T15:02:46.548Z,68.50
2023-01-26T15:05:23.687Z,60.50
2023-01-26T15:07:55.896Z,62.87
2023-01-26T15:10:36.634Z,67.83
2023-01-26T15:13:15.836Z,64.93
2023-01-26T15:15:49.419Z,74.30
2023-01-26T15:18:23.121Z,61.40
2023-01-26T15:21:19.263Z,71.47
2023-01-26T15:23:53.019Z,69.73
2023-01-26T15:26:58.485Z,58.90
2023-01-26T15:29:31.920Z,70.63
2023-01-26T15:32:03.906Z,56.83
2023-01-26T15:34:38.516Z,56.80
2023-01-26T15:37:33.519Z,60.40
2023-01-26T15:40:05.836Z,52.73
2023-01-26T15:42:35.856Z,54.13
2023-01-26T15:45:25.404Z,55.20
2023-01-26T15:47:54.987Z,48.93
2023-01-26T15:50:27.875Z,44.60
2023-01-26T15:52:55.288Z,38.70
2023-01-26T15:55:31.833Z,33.43
2023-01-26T15:58:00.923Z,40.97
2023-01-26T16:00:27.925Z,35.90
2023-01-26T16:02:55.066Z,29.40
2023-01-26T16:05:24.247Z,24.30
2023-01-26T16:07:56.698Z,18.30
2023-01-26T16:10:26.147Z,27.40
2023-01-26T16:12:57.661Z,21.80
2023-01-26T16:15:39.853Z,17.80
2023-01-26T16:18:06.884Z,22.07
2023-01-26T16:20:36.417Z,17.77
2023-01-26T16:23:03.657Z,24.13
2023-01-26T16:25:33.102Z,24.43
2023-01-26T16:28:02.513Z,25.47
2023-01-26T16:30:29.370Z,22.77
2023-01-26T16:32:56.251Z,21.50
2023-01-26T16:35:24.157Z,35.70
2023-01-26T16:37:51.393Z,23.90
2023-01-26T16:40:19.434Z,25.70
2023-01-26T16:42:51.603Z,21.40
2023-01-26T16:45:26.731Z,23.90
2023-01-26T16:47:59.770Z,23.50
2023-01-26T16:50:31.475Z,22.03
2023-01-26T16:52:58.659Z,24.07
2023-01-26T16:55:25.546Z,23.93
2023-01-26T16:57:52.570Z,24.40
2023-01-26T17:00:24.590Z,21.90
2023-01-26T17:02:57.091Z,28.90
2023-01-26T17:05:23.960Z,28.50
2023-01-26T17:07:51.031Z,23.73
2023-01-26T17:10:18.802Z,28.87
2023-01-26T17:12:48.254Z,30.13
2023-01-26T17:15:15.297Z,27.10
2023-01-26T17:17:42.610Z,32.17
2023-01-26T17:20:19.341Z,31.33
2023-01-26T17:22:48.878Z,24.27
2023-01-26T17:25:19.536Z,32.27
2023-01-26T17:27:49.760Z,30.13
2023-01-26T17:30:20.617Z,28.07
2023-01-26T17:32:54.697Z,30.33
2023-01-26T17:35:22.695Z,29.50
2023-01-26T17:37:49.767Z,39.73
2023-01-26T17:40:19.399Z,38.17
2023-01-26T17:42:50.945Z,41.60
2023-01-26T17:45:17.891Z,32.23
2023-01-26T17:47:44.864Z,49.43
2023-01-26T17:50:14.159Z,38.53
2023-01-26T17:52:41.075Z,29.83
2023-01-26T17:55:09.754Z,35.87
2023-01-26T17:57:39.189Z,35.47
2023-01-26T18:00:09.258Z,32.83
2023-01-26T18:02:39.913Z,33.73
2023-01-26T18:05:08.934Z,34.60
2023-01-26T18:07:40.537Z,42.67
2023-01-26T18:10:08.743Z,43.13
2023-01-26T18:12:37.737Z,45.53
2023-01-26T18:15:08.006Z,40.47
2023-01-26T18:17:36.742Z,45.77
2023-01-26T18:20:07.741Z,48.17
2023-01-26T18:22:34.770Z,43.23
2023-01-26T18:25:01.758Z,39.10
2023-01-26T18:27:28.854Z,50.63
2023-01-26T18:29:55.754Z,41.80
2023-01-26T18:32:25.729Z,54.53
2023-01-26T18:34:52.738Z,58.17
2023-01-26T18:37:19.684Z,41.23
2023-01-26T18:39:48.956Z,48.20
2023-01-26T18:42:16.301Z,42.07
2023-01-26T18:44:43.466Z,49.83
2023-01-26T18:47:10.406Z,45.90
2023-01-26T18:49:37.393Z,45.90
2023-01-26T18:52:06.835Z,46.93
2023-01-26T18:54:34.117Z,47.40
2023-01-26T18:57:00.984Z,43.57
2023-01-26T18:59:27.909Z,44.10
2023-01-26T19:01:55.489Z,52.30
2023-01-26T19:04:22.618Z,53.33
2023-01-26T19:06:49.605Z,55.93
2023-01-26T19:09:16.572Z,56.23
2023-01-26T19:12:11.162Z,44.90
2023-01-26T19:14:40.720Z,47.83
2023-01-26T19:17:07.651Z,46.73
2023-01-26T19:19:34.596Z,44.27
2023-01-26T19:22:02.987Z,45.50
2023-01-26T19:24:30.084Z,45.97
2023-01-26T19:26:57.001Z,52.20
2023-01-26T19:29:23.944Z,61.27
2023-01-26T19:31:50.920Z,57.57
2023-01-26T19:34:28.222Z,62.47
2023-01-26T19:36:55.295Z,54.93
2023-01-26T19:39:25.519Z,50.27
2023-01-26T19:41:52.541Z,57.57
2023-01-26T19:44:22.688Z,91.90
2023-01-26T19:46:57.388Z,59.83
2023-01-26T19:49:26.342Z,64.23
2023-01-26T19:51:54.533Z,57.37
2023-01-26T19:54:24.243Z,60.27
2023-01-26T19:56:54.497Z,54.40
2023-01-26T19:59:23.274Z,55.57
2023-01-26T20:01:53.991Z,45.63
2023-01-26T20:04:24.369Z,53.13
2023-01-26T20:06:54.371Z,62.00
2023-01-26T20:09:24.489Z,51.57
2023-01-26T20:11:52.912Z,52.10
2023-01-26T20:14:21.919Z,57.43
2023-01-26T20:16:48.934Z,51.80
2023-01-26T20:19:16.923Z,47.53
2023-01-26T20:21:46.336Z,54.93
2023-01-26T20:24:16.625Z,45.90
2023-01-26T20:26:45.158Z,43.73
2023-01-26T20:29:15.489Z,47.57
2023-01-26T20:31:46.523Z,60.50
2023-01-26T20:34:21.232Z,45.13
2023-01-26T20:36:48.904Z,35.97
2023-01-26T20:39:27.312Z,43.67
2023-01-26T20:41:57.276Z,48.83
2023-01-26T20:44:24.504Z,40.50
2023-01-26T20:46:59.748Z,42.90
2023-01-26T20:49:26.933Z,46.37
2023-01-26T20:51:56.554Z,39.97
2023-01-26T20:54:23.646Z,49.53
2023-01-26T20:56:51.402Z,48.40
2023-01-26T20:59:19.082Z,43.13
2023-01-26T21:01:46.352Z,36.87
2023-01-26T21:04:16.356Z,42.93
2023-01-26T21:06:43.399Z,38.73
2023-01-26T21:09:13.490Z,42.57
2023-01-26T21:11:43.830Z,40.93
2023-01-26T21:14:15.423Z,37.57
2023-01-26T21:16:44.861Z,27.70
2023-01-26T21:19:11.841Z,37.83
2023-01-26T21:21:38.844Z,28.27
2023-01-26T21:24:09.318Z,43.80
2023-01-26T21:26:38.495Z,32.60
2023-01-26T21:29:06.227Z,26.70
2023-01-26T21:31:36.466Z,33.23
2023-01-26T21:34:05.564Z,27.63
2023-01-26T21:36:35.246Z,24.37
2023-01-26T21:39:03.653Z,25.27
2023-01-26T21:41:52.475Z,35.07
2023-01-26T21:44:25.343Z,27.33
2023-01-26T21:47:04.887Z,22.90
2023-01-26T21:49:36.715Z,28.23
2023-01-26T21:52:24.912Z,22.13
2023-01-26T21:54:53.180Z,26.63
2023-01-26T21:57:39.971Z,23.00
2023-01-26T22:00:16.481Z,22.57
2023-01-26T22:02:48.432Z,22.63
2023-01-26T22:05:17.091Z,18.37
2023-01-26T22:07:46.792Z,18.80
2023-01-26T22:10:16.119Z,20.77
2023-01-26T22:12:46.776Z,23.93
2023-01-26T22:15:15.655Z,29.30
2023-01-26T22:17:43.831Z,16.83
2023-01-26T22:20:13.862Z,26.03
2023-01-26T22:22:45.443Z,24.67
2023-01-26T22:25:22.540Z,20.37
2023-01-26T22:27:52.136Z,21.40
2023-01-26T22:30:20.445Z,21.73
2023-01-26T22:32:47.354Z,13.57
2023-01-26T22:35:14.318Z,23.67
2023-01-26T22:37:41.479Z,15.93
2023-01-26T22:40:09.562Z,14.63
2023-01-26T22:42:36.571Z,18.87
2023-01-26T22:45:03.964Z,21.37
2023-01-26T22:47:33.026Z,11.73
2023-01-26T22:50:02.312Z,17.37
2023-01-26T22:52:29.856Z,13.23
2023-01-26T22:54:59.004Z,15.30
2023-01-26T22:57:28.999Z,7.03
2023-01-26T22:59:58.338Z,7.77
2023-01-26T23:02:25.617Z,8.50
2023-01-26T23:04:54.748Z,15.60
2023-01-26T23:07:21.743Z,11.73
2023-01-26T23:09:48.760Z,16.97
2023-01-26T23:12:15.754Z,14.93
2023-01-26T23:14:42.809Z,8.00
2023-01-26T23:17:11.806Z,12.47
2023-01-26T23:19:39.006Z,8.83
2023-01-26T23:22:06.120Z,9.90
2023-01-26T23:24:33.134Z,13.27
2023-01-26T23:27:00.140Z,10.30
2023-01-26T23:29:27.209Z,10.20
2023-01-26T23:31:54.355Z,13.67
2023-01-26T23:34:24.127Z,9.37
2023-01-26T23:36:51.121Z,12.63
2023-01-26T23:39:18.225Z,6.50
2023-01-26T23:41:45.246Z,7.10
2023-01-26T23:44:16.869Z,13.10
2023-01-26T23:46:44.056Z,9.50
2023-01-26T23:49:11.250Z,7.50
2023-01-26T23:51:40.293Z,6.50
2023-01-26T23:54:07.291Z,11.33
2023-01-26T23:56:34.339Z,7.57
2023-01-26T23:59:03.843Z,6.73
